createdAt,value
2023-05-19T10:37:32.518Z,101739.14
2023-05-19T10:42:46.863Z,101740.71
2023-05-19T10:47:55.573Z,101742.48
2023-05-19T10:53:00.658Z,101743.00
2023-05-19T10:58:04.276Z,101742.69
2023-05-19T11:04:03.999Z,101745.34
2023-05-19T11:09:24.507Z,101750.98
2023-05-19T11:14:39.819Z,101749.48
2023-05-19T11:19:54.866Z,101748.45
2023-05-19T11:24:58.274Z,101739.21
2023-05-19T11:30:15.270Z,101729.91
2023-05-19T11:35:21.721Z,101728.71
2023-05-19T11:40:29.155Z,101726.02
2023-05-19T11:45:35.922Z,101733.70
2023-05-19T11:50:47.477Z,101739.59
2023-05-19T11:55:51.100Z,101742.43
2023-05-19T12:01:00.307Z,101741.38
2023-05-19T12:06:06.280Z,101746.31
2023-05-19T12:11:11.052Z,101739.84
2023-05-19T12:16:21.211Z,101742.39
2023-05-19T12:21:24.959Z,101735.64
2023-05-19T12:26:37.810Z,101734.34
2023-05-19T12:31:41.824Z,101738.44
2023-05-19T12:36:55.102Z,101741.66
2023-05-19T12:42:09.300Z,101748.33
2023-05-19T12:47:14.336Z,101742.09
2023-05-19T12:52:17.722Z,101747.61
2023-05-19T12:57:22.433Z,101760.05
2023-05-19T13:02:29.756Z,101750.52
2023-05-19T13:07:33.142Z,101744.56
2023-05-19T13:12:36.628Z,101738.36
2023-05-19T13:17:39.937Z,101732.84
2023-05-19T13:22:44.310Z,101717.98
2023-05-19T13:27:48.513Z,101717.39
2023-05-19T13:32:52.909Z,101712.09
2023-05-19T13:37:56.421Z,101707.38
2023-05-19T13:43:02.487Z,101707.27
2023-05-19T13:48:07.816Z,101712.90
2023-05-19T13:53:13.052Z,101718.43
2023-05-19T13:58:17.881Z,101722.09
2023-05-19T14:03:25.423Z,101732.31
2023-05-19T14:08:29.190Z,101730.51
2023-05-19T14:13:37.222Z,101726.02
2023-05-19T14:18:49.746Z,101717.03
2023-05-19T14:23:55.871Z,101709.43
2023-05-19T14:28:59.444Z,101695.73
2023-05-19T14:34:05.617Z,101688.23
2023-05-19T14:39:10.109Z,101689.32
2023-05-19T14:44:14.954Z,101689.63
2023-05-19T14:49:19.001Z,101692.27
2023-05-19T14:54:23.451Z,101700.88
2023-05-19T14:59:33.131Z,101696.66
2023-05-19T15:04:39.723Z,101700.21
2023-05-19T15:09:43.724Z,101699.05
2023-05-19T15:14:47.354Z,101697.94
2023-05-19T15:19:50.756Z,101696.23
2023-05-19T15:24:59.777Z,101701.01
2023-05-19T15:30:10.416Z,101688.89
2023-05-19T15:35:14.029Z,101686.39
2023-05-19T15:40:17.531Z,101678.13
2023-05-19T15:45:21.030Z,101668.07
2023-05-19T15:50:27.485Z,101671.38
2023-05-19T15:55:31.454Z,101675.41
2023-05-19T16:00:35.222Z,101665.71
2023-05-19T16:05:39.018Z,101666.25
2023-05-19T16:10:42.523Z,101666.17
2023-05-19T16:15:46.710Z,101663.70
2023-05-19T16:20:51.595Z,101671.00
2023-05-19T16:25:55.684Z,101673.95
2023-05-19T16:31:00.476Z,101671.46
2023-05-19T16:36:07.013Z,101673.77
2023-05-19T16:41:13.194Z,101671.06
2023-05-19T16:46:16.805Z,101673.82
2023-05-19T16:51:20.321Z,101671.98
2023-05-19T16:56:23.820Z,101669.27
2023-05-19T17:01:27.452Z,101671.03
2023-05-19T17:06:31.495Z,101669.85
2023-05-19T17:11:34.878Z,101665.86
2023-05-19T17:16:38.690Z,101665.26
2023-05-19T17:21:42.604Z,101667.10
2023-05-19T17:26:46.426Z,101672.34
2023-05-19T17:31:49.824Z,101670.05
2023-05-19T17:36:53.613Z,101669.02
2023-05-19T17:42:00.162Z,101675.84
2023-05-19T17:47:04.318Z,101673.65
2023-05-19T17:52:08.612Z,101674.60
2023-05-19T17:57:13.387Z,101675.88
2023-05-19T18:02:18.988Z,101675.41
2023-05-19T18:07:26.018Z,101678.64
2023-05-19T18:12:31.941Z,101676.80
2023-05-19T18:17:35.931Z,101676.70
2023-05-19T18:22:39.587Z,101670.92
2023-05-19T18:27:44.324Z,101677.77
2023-05-19T18:32:47.883Z,101674.81
2023-05-19T18:37:51.442Z,101674.52
2023-05-19T18:42:54.990Z,101681.69
2023-05-19T18:47:58.421Z,101688.19
2023-05-19T18:53:01.828Z,101686.13
2023-05-19T18:58:05.349Z,101686.85
2023-05-19T19:03:10.649Z,101682.91
2023-05-19T19:08:13.989Z,101687.54
2023-05-19T19:13:20.950Z,101689.66
2023-05-19T19:18:27.199Z,101693.58
2023-05-19T19:23:31.038Z,101698.67
2023-05-19T19:28:34.897Z,101699.09
2023-05-19T19:33:38.342Z,101702.64
2023-05-19T19:38:41.829Z,101703.19
2023-05-19T19:43:45.363Z,101704.10
2023-05-19T19:48:48.764Z,101706.31
2023-05-19T19:53:52.163Z,101706.46
2023-05-19T19:58:59.025Z,101702.41
2023-05-19T20:04:02.916Z,101707.90
2023-05-19T20:09:09.164Z,101714.71
2023-05-19T20:14:12.516Z,101713.23
2023-05-19T20:19:16.028Z,101704.10
2023-05-19T20:24:20.019Z,101708.02
2023-05-19T20:29:24.300Z,101709.70
2023-05-19T20:34:28.039Z,101713.48
2023-05-19T20:39:31.627Z,101713.39
2023-05-19T20:44:34.967Z,101715.21
2023-05-19T20:49:38.466Z,101713.91
2023-05-19T20:54:42.349Z,101710.67
2023-05-19T20:59:46.388Z,101708.00
2023-05-19T21:04:51.161Z,101700.92
2023-05-19T21:09:54.704Z,101697.71
2023-05-19T21:14:58.586Z,101697.39
2023-05-19T21:20:02.453Z,101702.01
2023-05-19T21:25:06.790Z,101704.22
2023-05-19T21:30:14.651Z,101699.67
2023-05-19T21:35:18.235Z,101698.43
2023-05-19T21:40:21.800Z,101703.77
2023-05-19T21:45:26.387Z,101709.27
2023-05-19T21:50:29.759Z,101710.07
2023-05-19T21:55:33.174Z,101704.83
2023-05-19T22:00:37.112Z,101705.11
2023-05-19T22:05:40.525Z,101707.30
2023-05-19T22:10:44.476Z,101710.02
2023-05-19T22:15:47.920Z,101706.67
2023-05-19T22:20:51.199Z,101699.52
2023-05-19T22:25:54.673Z,101695.14
2023-05-19T22:30:58.157Z,101696.30
2023-05-19T22:36:01.757Z,101702.67
2023-05-19T22:41:05.949Z,101705.61
2023-05-19T22:46:09.293Z,101706.95
2023-05-19T22:51:12.816Z,101707.11
2023-05-19T22:56:16.937Z,101707.58
2023-05-19T23:01:20.236Z,101706.70
2023-05-19T23:06:23.657Z,101706.55
2023-05-19T23:11:26.987Z,101703.98
2023-05-19T23:16:30.432Z,101700.38
2023-05-19T23:21:33.747Z,101699.36
2023-05-19T23:26:37.049Z,101700.11
2023-05-19T23:31:42.608Z,101695.27
2023-05-19T23:36:46.407Z,101697.70
2023-05-19T23:41:49.777Z,101699.11
2023-05-19T23:46:53.228Z,101697.11
2023-05-19T23:51:57.153Z,101698.88
2023-05-19T23:57:02.575Z,101694.58
